Gazi — 9HA2542 — position and weather

sailwx.info

Track history (hours):
 
Tides and Currents Weather Stations Pressure Air Temp Water Temp Dewpoint Dewpoint Depression Visibility Wind Speed Wind Dir Waves Ship Positions

Gazi

Last reported at 2016-Jan-21 23:32 UTC. Time now 2016-Feb-14 01:42 UTC.
Position N 11°01' W 061°11'.
Warning: this ship's position is 23 days out of date.

Length 153 m; draft 6 m.

Type: Ship. MMSI: 248841000.

Date/timePositionNaut miles runAvg speedWind from/ knotsBaromVisibWave heightAir tempDewpointWater temp
2016-Jan-21 23:32N 11°01' W 061°11'11 9.7
2016-Jan-21 22:26N 11°02' W 061°22'8 6.7
2016-Jan-21 21:15N 11°02' W 061°30'2 0.7
2016-Jan-21 19:04N 11°01' W 061°30'1 0.6
2016-Jan-21 17:31N 11°00' W 061°31'0 0.4
2016-Jan-21 16:26N 11°00' W 061°31'3 3.0
2016-Jan-21 15:30N 10°58' W 061°33'2 1.5
2016-Jan-21 14:27N 10°59' W 061°32'4 4.9
2016-Jan-21 13:33N 11°02' W 061°35'4 4.1
2016-Jan-21 12:31N 11°05' W 061°38'2 1.7
2016-Jan-21 11:33N 11°04' W 061°36'2 1.7
2016-Jan-21 10:10N 11°03' W 061°34'2 3.5
2016-Jan-21 09:32N 11°03' W 061°37'9 9.4
2016-Jan-21 08:33N 11°06' W 061°46'  
Track history (hours):
 
Tides and Currents Weather Stations Pressure Air Temp Water Temp Dewpoint Dewpoint Depression Visibility Wind Speed Wind Dir Waves Ship Positions

Gazi

Last reported at 2016-Jan-21 23:32 UTC. Time now 2016-Feb-14 01:42 UTC.
Position N 11°01' W 061°11'.
Warning: this ship's position is 23 days out of date.

Length 153 m; draft 6 m.

Type: Ship. MMSI: 248841000.

Date/timePositionNaut miles runAvg speedWind from/ knotsBaromVisibWave heightAir tempDewpointWater temp
2016-Jan-21 23:32N 11°01' W 061°11'11 9.7
2016-Jan-21 22:26N 11°02' W 061°22'8 6.7
2016-Jan-21 21:15N 11°02' W 061°30'2 0.7
2016-Jan-21 19:04N 11°01' W 061°30'1 0.6
2016-Jan-21 17:31N 11°00' W 061°31'0 0.4
2016-Jan-21 16:26N 11°00' W 061°31'3 3.0
2016-Jan-21 15:30N 10°58' W 061°33'2 1.5
2016-Jan-21 14:27N 10°59' W 061°32'4 4.9
2016-Jan-21 13:33N 11°02' W 061°35'4 4.1
2016-Jan-21 12:31N 11°05' W 061°38'2 1.7
2016-Jan-21 11:33N 11°04' W 061°36'2 1.7
2016-Jan-21 10:10N 11°03' W 061°34'2 3.5
2016-Jan-21 09:32N 11°03' W 061°37'9 9.4
2016-Jan-21 08:33N 11°06' W 061°46'  

Dump ship's entire track history